createdAt,value
2018-12-25T00:02:40.226Z,2.40
2018-12-25T00:07:25.970Z,2.20
2018-12-25T00:12:11.756Z,2.10
2018-12-25T00:16:57.487Z,2.10
2018-12-25T00:21:43.241Z,1.90
2018-12-25T00:26:29.017Z,1.80
2018-12-25T00:31:14.705Z,1.80
2018-12-25T00:36:00.619Z,1.90
2018-12-25T00:40:46.498Z,2.10
2018-12-25T00:45:32.316Z,2.30
2018-12-25T00:50:18.089Z,2.40
2018-12-25T00:55:03.858Z,2.30
2018-12-25T00:59:49.604Z,2.40
2018-12-25T01:04:35.468Z,2.40
2018-12-25T01:09:21.174Z,2.40
2018-12-25T01:14:06.953Z,2.40
2018-12-25T01:18:52.702Z,2.30
2018-12-25T01:23:38.619Z,2.40
2018-12-25T01:28:24.684Z,2.30
2018-12-25T01:33:10.515Z,2.30
2018-12-25T01:37:56.262Z,2.10
2018-12-25T01:42:42.004Z,1.90
2018-12-25T01:47:27.752Z,1.60
2018-12-25T01:52:13.536Z,1.30
2018-12-25T01:56:59.296Z,1.10
2018-12-25T02:01:44.986Z,1.00
2018-12-25T02:06:30.768Z,1.00
2018-12-25T02:11:16.877Z,1.40
2018-12-25T02:16:02.765Z,1.20
2018-12-25T02:20:48.548Z,1.00
2018-12-25T02:25:34.531Z,0.80
2018-12-25T02:30:20.373Z,0.70
2018-12-25T02:35:06.337Z,0.80
2018-12-25T02:39:52.173Z,0.50
2018-12-25T02:44:37.909Z,0.60
2018-12-25T02:49:23.767Z,0.90
2018-12-25T02:54:09.590Z,0.80
2018-12-25T02:58:55.784Z,0.70
2018-12-25T03:03:41.691Z,0.60
2018-12-25T03:08:27.514Z,0.70
2018-12-25T03:13:13.331Z,0.70
2018-12-25T03:17:59.211Z,0.70
2018-12-25T03:22:44.990Z,0.80
2018-12-25T03:27:30.782Z,0.70
2018-12-25T03:32:16.426Z,0.50
2018-12-25T03:37:02.221Z,0.30
2018-12-25T03:41:47.894Z,0.20
2018-12-25T03:46:33.762Z,0.20
2018-12-25T03:51:19.412Z,-0.10
2018-12-25T03:56:05.125Z,-0.20
2018-12-25T04:00:51.020Z,-0.40
2018-12-25T04:05:36.754Z,-0.60
2018-12-25T04:10:22.457Z,-0.70
2018-12-25T04:15:08.290Z,-0.90
2018-12-25T04:19:54.032Z,-0.70
2018-12-25T04:24:41.698Z,-0.20
2018-12-25T04:29:27.509Z,-0.40
2018-12-25T04:34:13.392Z,-0.10
2018-12-25T04:38:59.063Z,-0.20
2018-12-25T04:43:44.956Z,-0.40
2018-12-25T04:48:30.626Z,-0.40
2018-12-25T04:53:16.366Z,-0.30
2018-12-25T04:58:02.121Z,-0.30
2018-12-25T05:02:47.882Z,-0.40
2018-12-25T05:07:33.603Z,-0.20
2018-12-25T05:12:19.345Z,-0.10
2018-12-25T05:17:05.076Z,-0.20
2018-12-25T05:21:50.766Z,-0.20
2018-12-25T05:26:36.491Z,-0.20
2018-12-25T05:31:22.161Z,-0.10
2018-12-25T05:36:07.926Z,-0.30
2018-12-25T05:40:53.603Z,-0.70
2018-12-25T05:45:39.354Z,-0.90
2018-12-25T05:50:25.097Z,-1.00
2018-12-25T05:55:10.931Z,-1.00
2018-12-25T05:59:56.617Z,-1.00
2018-12-25T06:04:42.317Z,-1.30
2018-12-25T06:09:28.663Z,-1.40
2018-12-25T06:14:14.502Z,-1.30
2018-12-25T06:19:00.258Z,-1.40
2018-12-25T06:23:45.921Z,-1.30
2018-12-25T06:28:31.738Z,-1.20
2018-12-25T06:33:17.437Z,-1.40
2018-12-25T06:38:03.174Z,-1.50
2018-12-25T06:42:48.790Z,-1.60
2018-12-25T06:47:34.654Z,-1.50
2018-12-25T06:52:20.343Z,-1.10
2018-12-25T06:57:06.250Z,-0.90
2018-12-25T07:01:51.956Z,-1.00
2018-12-25T07:06:37.854Z,-1.10
2018-12-25T07:11:23.676Z,-1.50
2018-12-25T07:16:09.421Z,-1.70
2018-12-25T07:20:55.232Z,-1.30
2018-12-25T07:25:41.014Z,-1.20
2018-12-25T07:30:26.778Z,-1.20
2018-12-25T07:35:12.540Z,-1.10
2018-12-25T07:39:58.219Z,-0.50
2018-12-25T07:44:43.988Z,-0.30
2018-12-25T07:49:29.724Z,0.00
2018-12-25T07:54:15.560Z,0.20
2018-12-25T07:59:01.320Z,0.20
2018-12-25T08:03:47.049Z,0.00
2018-12-25T08:08:32.823Z,-0.30
2018-12-25T08:13:18.658Z,-0.40
2018-12-25T08:18:06.397Z,-0.50
2018-12-25T08:22:52.172Z,-0.40
2018-12-25T08:27:37.981Z,-0.40
2018-12-25T08:32:23.848Z,-0.10
2018-12-25T08:37:09.577Z,-0.10
2018-12-25T08:41:55.375Z,-0.10
2018-12-25T08:46:41.084Z,0.00
2018-12-25T08:51:28.036Z,-0.10
2018-12-25T08:56:13.906Z,0.00
2018-12-25T09:00:59.642Z,1.20
2018-12-25T09:05:45.387Z,2.30
2018-12-25T09:10:31.113Z,2.50
2018-12-25T09:15:16.865Z,2.40
2018-12-25T09:20:02.663Z,2.80
2018-12-25T09:24:48.384Z,3.00
2018-12-25T09:29:34.115Z,3.20
2018-12-25T09:34:19.811Z,3.60
2018-12-25T09:39:08.745Z,4.50
2018-12-25T09:43:54.420Z,5.90
2018-12-25T09:48:40.111Z,6.70
2018-12-25T09:53:25.835Z,7.70
2018-12-25T09:58:11.611Z,8.70
2018-12-25T10:02:57.437Z,8.90
2018-12-25T10:07:43.220Z,9.50
2018-12-25T10:12:28.937Z,9.10
2018-12-25T10:17:14.783Z,9.20
2018-12-25T10:22:03.214Z,8.60
2018-12-25T10:26:48.056Z,7.60
2018-12-25T10:31:33.845Z,7.20
2018-12-25T10:36:19.651Z,6.60
2018-12-25T10:41:05.398Z,6.40
2018-12-25T10:45:51.070Z,6.10
2018-12-25T10:50:36.850Z,6.00
2018-12-25T10:55:22.753Z,6.50
2018-12-25T11:00:11.979Z,6.90
2018-12-25T11:04:57.671Z,8.00
2018-12-25T11:09:43.409Z,8.60
2018-12-25T11:14:29.203Z,9.60
2018-12-25T11:19:14.993Z,9.80
2018-12-25T11:24:00.770Z,10.00
2018-12-25T11:28:46.458Z,11.60
2018-12-25T11:33:32.201Z,11.50
2018-12-25T11:38:17.938Z,11.10
2018-12-25T11:43:03.829Z,11.90
2018-12-25T11:47:49.926Z,12.10
2018-12-25T11:52:35.759Z,11.70
2018-12-25T11:57:21.734Z,10.40
2018-12-25T12:02:07.724Z,9.60
2018-12-25T12:06:53.549Z,9.20
2018-12-25T12:11:39.323Z,9.20
2018-12-25T12:16:25.219Z,9.20
2018-12-25T12:21:11.018Z,8.90
2018-12-25T12:25:56.707Z,9.20
2018-12-25T12:30:42.522Z,9.90
2018-12-25T12:35:28.288Z,9.80
2018-12-25T12:40:14.086Z,10.60
2018-12-25T12:44:59.828Z,11.70
2018-12-25T12:49:45.595Z,13.20
2018-12-25T12:54:31.356Z,15.30
2018-12-25T12:59:17.002Z,16.80
2018-12-25T13:04:02.722Z,17.70
2018-12-25T13:08:48.484Z,17.60
2018-12-25T13:13:34.311Z,17.50
2018-12-25T13:18:20.003Z,17.20
2018-12-25T13:23:05.829Z,16.80
2018-12-25T13:27:51.649Z,15.50
2018-12-25T13:32:37.320Z,13.30
2018-12-25T13:37:23.071Z,10.70
2018-12-25T13:42:08.771Z,9.00
2018-12-25T13:46:54.551Z,8.50
2018-12-25T13:51:41.326Z,8.70
2018-12-25T13:56:27.359Z,9.00
2018-12-25T14:01:13.060Z,8.80
2018-12-25T14:05:58.820Z,8.50
2018-12-25T14:10:44.675Z,8.40
2018-12-25T14:15:30.655Z,8.40
2018-12-25T14:20:16.614Z,8.10
2018-12-25T14:25:02.638Z,8.00
2018-12-25T14:29:48.528Z,8.10
2018-12-25T14:34:34.290Z,7.80
2018-12-25T14:39:20.183Z,7.40
2018-12-25T14:44:06.082Z,6.90
2018-12-25T14:48:51.971Z,7.00
2018-12-25T14:53:37.631Z,6.80
2018-12-25T14:58:23.487Z,6.80
2018-12-25T15:03:09.243Z,6.60
2018-12-25T15:07:55.106Z,6.70
2018-12-25T15:12:41.238Z,6.10
2018-12-25T15:17:26.936Z,5.20
2018-12-25T15:22:12.702Z,4.40
2018-12-25T15:26:58.709Z,3.70
2018-12-25T15:31:44.478Z,3.30
2018-12-25T15:36:30.351Z,2.90
2018-12-25T15:41:16.763Z,2.50
2018-12-25T15:46:02.642Z,2.00
2018-12-25T15:50:48.485Z,1.90
2018-12-25T15:55:34.297Z,1.60
2018-12-25T16:00:20.218Z,1.50
2018-12-25T16:05:06.276Z,1.40
2018-12-25T16:09:52.010Z,1.10
2018-12-25T16:14:37.854Z,1.00
2018-12-25T16:19:23.578Z,1.00
2018-12-25T16:24:09.342Z,0.90
2018-12-25T16:28:55.068Z,0.80
2018-12-25T16:33:40.788Z,0.70
2018-12-25T16:38:26.480Z,0.60
2018-12-25T16:43:12.319Z,0.50
2018-12-25T16:47:58.761Z,0.50
2018-12-25T16:52:44.584Z,0.40
2018-12-25T16:57:30.270Z,0.30
2018-12-25T17:02:16.061Z,0.70
2018-12-25T17:07:01.874Z,0.70
2018-12-25T17:11:47.624Z,0.60
2018-12-25T17:16:33.371Z,0.50
2018-12-25T17:21:19.228Z,0.30
2018-12-25T17:26:04.967Z,0.20
2018-12-25T17:30:50.753Z,0.00
2018-12-25T17:35:36.474Z,-0.10
2018-12-25T17:40:22.255Z,-0.10
2018-12-25T17:45:08.283Z,0.00
2018-12-25T17:49:54.075Z,0.10
2018-12-25T17:54:39.843Z,0.00
2018-12-25T17:59:25.584Z,-0.30
2018-12-25T18:04:11.355Z,-0.10
2018-12-25T18:08:57.231Z,-0.10
2018-12-25T18:13:43.082Z,-0.10
2018-12-25T18:18:28.842Z,-0.40
2018-12-25T18:23:14.625Z,-0.60
2018-12-25T18:28:00.393Z,-0.80
2018-12-25T18:32:46.110Z,-1.00
2018-12-25T18:37:31.884Z,-1.20
2018-12-25T18:42:23.231Z,-1.00
2018-12-25T18:47:05.338Z,-0.90
2018-12-25T18:51:51.366Z,-0.90
2018-12-25T18:56:37.221Z,-1.10
2018-12-25T19:01:23.021Z,-1.00
2018-12-25T19:06:09.005Z,-0.80
2018-12-25T19:10:55.017Z,-1.10
2018-12-25T19:15:40.825Z,-1.00
2018-12-25T19:20:26.561Z,-1.10
2018-12-25T19:25:12.868Z,-1.40
2018-12-25T19:29:58.744Z,-1.60
2018-12-25T19:34:44.790Z,-1.70
2018-12-25T19:39:30.781Z,-1.70
2018-12-25T19:44:16.743Z,-1.50
2018-12-25T19:49:02.851Z,-1.70
2018-12-25T19:53:48.711Z,-1.50
2018-12-25T19:58:34.945Z,-1.50
2018-12-25T20:03:25.736Z,-1.70
2018-12-25T20:08:43.924Z,-2.00
2018-12-25T20:13:52.117Z,-2.00
2018-12-25T20:19:11.174Z,-1.80
2018-12-25T20:24:40.721Z,-0.80
2018-12-25T20:30:19.173Z,0.80
2018-12-25T20:35:45.830Z,1.20
2018-12-25T20:41:20.089Z,1.00
2018-12-25T20:46:37.294Z,0.70
2018-12-25T20:51:58.947Z,1.20
2018-12-25T20:57:33.791Z,1.10
2018-12-25T21:02:51.338Z,0.30
2018-12-25T21:08:13.047Z,-0.30
2018-12-25T21:13:48.769Z,-0.60
2018-12-25T21:19:10.232Z,1.50
2018-12-25T21:24:31.457Z,1.70
2018-12-25T21:29:17.762Z,1.60
2018-12-25T21:34:04.032Z,1.50
2018-12-25T21:38:50.303Z,1.50
2018-12-25T21:43:36.578Z,1.50
2018-12-25T21:48:23.004Z,1.50
2018-12-25T21:53:10.587Z,1.60
2018-12-25T21:57:57.272Z,1.50
2018-12-25T22:02:43.877Z,1.40
2018-12-25T22:07:29.996Z,1.50
2018-12-25T22:12:16.219Z,1.60
2018-12-25T22:17:02.828Z,1.60
2018-12-25T22:21:48.774Z,1.50
2018-12-25T22:26:34.560Z,1.60
2018-12-25T22:31:20.463Z,1.50
2018-12-25T22:36:06.438Z,1.50
2018-12-25T22:40:52.383Z,1.30
2018-12-25T22:45:38.195Z,1.40
2018-12-25T22:50:23.973Z,1.50
2018-12-25T22:55:11.175Z,1.50
2018-12-25T22:59:56.989Z,1.60
2018-12-25T23:04:42.869Z,1.50
2018-12-25T23:09:28.800Z,1.30
2018-12-25T23:14:14.895Z,0.90
2018-12-25T23:19:00.717Z,1.30
2018-12-25T23:23:46.464Z,1.40
2018-12-25T23:28:32.407Z,1.30
2018-12-25T23:33:18.255Z,1.20
2018-12-25T23:38:04.052Z,0.80
2018-12-25T23:42:49.787Z,0.20
2018-12-25T23:47:35.588Z,-0.10
2018-12-25T23:52:21.272Z,-0.40
2018-12-25T23:57:07.054Z,-0.80
